Terminal Aerodrome Forecast
Issued by NWS

Home | Current Version | Previous Version | Graphics & Text | Print | Product List | Glossary On
Versions: 1 2 3 4 5 6 7 8 9 10 11 12 13 14
000
FTUS45 KGGW 221100
TAFOLF
TAF
KOLF 221127Z 2212/2312 07006KT P6SM BKN150
     FM221400 09012KT P6SM FEW100 BKN200
     FM221700 11017KT P6SM BKN200
     FM222300 13018G28KT P6SM BKN100
     FM230600 09020G31KT P6SM -SHRA OVC050=

USA.gov is the U.S. government's official web portal to all federal, state and local government web resources and services.